Time;durP1;ratioP1;P1;durP2;ratioP2;P2;SDS_P1;SDS_P2;PMS_P1;PMS_P2;Temp;Humidity;BMP_temperature;BMP_pressure;BME280_temperature;BME280_humidity;BME280_pressure;Samples;Min_cycle;Max_cycle;Signal;HPM_P1;HPM_P2
2021/05/21 00:00:23;;;;;;;4.40;3.00;;;10.90;99.90;;;;;;5095992;28;20292;-55
2021/05/21 00:02:49;;;;;;;4.40;2.90;;;10.80;99.90;;;;;;5095746;28;20636;-49
2021/05/21 00:05:15;;;;;;;3.37;2.80;;;10.80;99.90;;;;;;5096029;28;20206;-48
2021/05/21 00:07:40;;;;;;;2.73;2.13;;;10.80;99.90;;;;;;5095363;28;20203;-47
2021/05/21 00:10:07;;;;;;;1.93;1.80;;;10.80;99.90;;;;;;5096417;28;20687;-45
2021/05/21 00:12:32;;;;;;;3.13;2.10;;;10.70;99.90;;;;;;5094920;28;20551;-53
2021/05/21 00:14:58;;;;;;;2.10;2.00;;;10.70;99.90;;;;;;5095959;28;20177;-46
2021/05/21 00:17:24;;;;;;;2.17;1.90;;;10.70;99.90;;;;;;5095244;28;20636;-55
2021/05/21 00:19:49;;;;;;;2.37;2.13;;;10.70;99.90;;;;;;5095521;28;20178;-48
2021/05/21 00:22:15;;;;;;;2.57;2.20;;;10.70;99.90;;;;;;5095052;28;20174;-51
2021/05/21 00:24:40;;;;;;;1.97;1.87;;;10.60;99.90;;;;;;5095038;28;20225;-48
2021/05/21 00:27:06;;;;;;;3.17;2.10;;;10.60;99.90;;;;;;5095907;28;20190;-50
2021/05/21 00:29:32;;;;;;;2.20;2.00;;;10.60;99.90;;;;;;5095301;28;20517;-48
2021/05/21 00:31:57;;;;;;;2.40;2.20;;;10.50;99.90;;;;;;5094968;28;20242;-52
2021/05/21 00:34:23;;;;;;;2.20;2.10;;;10.50;99.90;;;;;;5094994;28;20205;-56
2021/05/21 00:36:48;;;;;;;1.90;1.80;;;10.40;99.90;;;;;;5094944;28;20260;-49
2021/05/21 00:39:14;;;;;;;2.27;1.90;;;10.40;99.90;;;;;;5094863;28;20273;-48
2021/05/21 00:41:39;;;;;;;2.50;2.30;;;10.30;99.90;;;;;;5093711;28;20614;-45
2021/05/21 00:44:05;;;;;;;2.13;1.90;;;10.20;99.90;;;;;;5074689;28;20713;-49
2021/05/21 00:46:31;;;;;;;3.30;1.87;;;10.20;99.90;;;;;;5074566;28;20194;-53
2021/05/21 00:48:56;;;;;;;3.03;2.07;;;10.20;99.90;;;;;;5074503;28;20179;-52
2021/05/21 00:51:22;;;;;;;2.13;1.97;;;10.20;99.90;;;;;;5074881;28;20519;-54
2021/05/21 00:53:50;;;;;;;2.00;1.90;;;10.20;99.90;;;;;;5075372;28;20253;-49
2021/05/21 00:56:15;;;;;;;2.93;2.27;;;10.20;99.90;;;;;;5073726;28;20209;-47
2021/05/21 00:58:41;;;;;;;1.97;1.87;;;10.20;99.90;;;;;;5074569;28;20171;-48
2021/05/21 01:01:07;;;;;;;2.60;2.13;;;10.20;99.90;;;;;;5074357;28;20653;-50
2021/05/21 01:03:36;;;;;;;3.87;2.40;;;10.20;99.90;;;;;;5074175;28;20284;-50
2021/05/21 01:06:02;;;;;;;2.27;2.17;;;10.20;99.90;;;;;;5074094;28;20214;-53
2021/05/21 01:08:27;;;;;;;2.53;2.33;;;10.30;99.90;;;;;;5074809;28;20177;-52
2021/05/21 01:10:53;;;;;;;3.20;2.90;;;10.40;99.90;;;;;;5074312;28;20194;-49
2021/05/21 01:13:19;;;;;;;3.60;3.30;;;10.50;99.90;;;;;;5074057;28;20209;-48
2021/05/21 01:15:44;;;;;;;2.90;2.70;;;10.50;99.90;;;;;;5074152;28;20178;-49
2021/05/21 01:18:11;;;;;;;2.93;2.60;;;10.60;99.90;;;;;;5073978;28;20200;-48
2021/05/21 01:20:37;;;;;;;2.37;2.27;;;10.60;99.90;;;;;;5074658;28;20174;-55
2021/05/21 01:23:04;;;;;;;3.17;2.80;;;10.60;99.90;;;;;;5073783;28;20185;-49
2021/05/21 01:25:31;;;;;;;2.83;2.63;;;10.60;99.90;;;;;;5074014;28;20217;-53
2021/05/21 01:27:57;;;;;;;2.97;2.77;;;10.60;99.90;;;;;;5074732;28;20190;-49
2021/05/21 01:30:24;;;;;;;4.17;3.40;;;10.60;99.90;;;;;;5073922;28;20626;-50
2021/05/21 01:32:49;;;;;;;3.63;2.60;;;10.60;99.90;;;;;;5073837;28;20240;-46
2021/05/21 01:35:16;;;;;;;2.87;2.57;;;10.50;99.90;;;;;;5073956;28;20534;-48
2021/05/21 01:37:44;;;;;;;2.50;2.30;;;10.50;99.90;;;;;;5073720;28;20190;-51
2021/05/21 01:40:11;;;;;;;2.00;1.90;;;10.50;99.90;;;;;;5073932;28;20692;-47
2021/05/21 01:42:37;;;;;;;2.10;1.90;;;10.40;99.90;;;;;;5074227;28;20200;-48
2021/05/21 01:45:04;;;;;;;2.23;2.07;;;10.40;99.90;;;;;;5073598;28;20604;-49
2021/05/21 01:47:29;;;;;;;2.10;1.90;;;10.40;99.90;;;;;;5073666;28;20581;-47
2021/05/21 01:49:55;;;;;;;3.73;1.70;;;10.40;99.90;;;;;;5073599;28;20617;-46
2021/05/21 01:52:20;;;;;;;1.67;1.57;;;10.40;99.90;;;;;;5073654;28;20305;-51
2021/05/21 01:54:46;;;;;;;1.83;1.60;;;10.30;99.90;;;;;;5073673;28;20170;-49
2021/05/21 01:57:12;;;;;;;2.63;1.93;;;10.40;99.90;;;;;;5073729;28;20596;-51
2021/05/21 01:59:38;;;;;;;2.13;1.97;;;10.40;99.90;;;;;;5073686;28;20175;-47
2021/05/21 02:02:06;;;;;;;2.07;1.87;;;10.30;99.90;;;;;;5073601;28;20189;-48
2021/05/21 02:04:36;;;;;;;1.70;1.60;;;10.40;99.90;;;;;;5073668;28;20255;-48
2021/05/21 02:07:03;;;;;;;1.93;1.77;;;10.40;99.90;;;;;;5074597;28;20190;-47
2021/05/21 02:09:34;;;;;;;2.30;2.07;;;10.40;99.90;;;;;;5077838;28;20170;-51
2021/05/21 02:12:04;;;;;;;3.47;2.10;;;10.30;99.90;;;;;;5077412;28;20167;-48
2021/05/21 02:14:30;;;;;;;4.03;1.80;;;10.30;99.90;;;;;;5078057;28;20185;-46
2021/05/21 02:16:55;;;;;;;4.80;2.30;;;10.30;99.90;;;;;;5076000;28;20230;-49
2021/05/21 02:19:21;;;;;;;2.37;1.77;;;10.20;99.90;;;;;;5077384;28;20178;-48
2021/05/21 02:21:46;;;;;;;2.30;2.10;;;10.20;99.90;;;;;;5077241;28;20178;-48
2021/05/21 02:24:12;;;;;;;2.63;1.87;;;10.20;99.90;;;;;;5077250;28;20229;-46
2021/05/21 02:26:38;;;;;;;2.20;2.00;;;10.20;99.90;;;;;;5077591;28;20244;-48
2021/05/21 02:29:04;;;;;;;2.27;2.10;;;10.10;99.90;;;;;;5077947;28;20191;-54
2021/05/21 02:31:29;;;;;;;2.17;1.90;;;10.10;99.90;;;;;;5077547;28;20261;-51
2021/05/21 02:33:55;;;;;;;3.17;1.90;;;10.10;99.90;;;;;;5077776;28;20182;-46
2021/05/21 02:36:20;;;;;;;2.57;2.37;;;10.10;99.90;;;;;;5077114;28;20187;-48
2021/05/21 02:38:46;;;;;;;2.57;2.37;;;10.10;99.90;;;;;;5076844;28;20197;-49
2021/05/21 02:41:11;;;;;;;2.50;2.27;;;10.00;99.90;;;;;;5076910;28;20174;-48
2021/05/21 02:43:37;;;;;;;3.27;2.47;;;10.00;99.90;;;;;;5076999;28;20205;-50
2021/05/21 02:46:02;;;;;;;3.27;2.20;;;10.00;99.90;;;;;;5077500;28;21826;-52
2021/05/21 02:48:28;;;;;;;2.33;2.13;;;9.90;99.90;;;;;;5076639;28;20229;-52
2021/05/21 02:50:54;;;;;;;3.03;2.73;;;9.90;99.90;;;;;;5077096;28;20614;-48
2021/05/21 02:53:19;;;;;;;3.63;2.70;;;9.90;99.90;;;;;;5077008;28;20197;-48
2021/05/21 02:55:45;;;;;;;3.17;2.90;;;9.90;99.90;;;;;;5076895;28;20182;-48
2021/05/21 02:58:10;;;;;;;2.43;2.23;;;9.90;99.90;;;;;;5077200;28;20223;-48
2021/05/21 03:00:36;;;;;;;2.07;1.90;;;9.80;99.90;;;;;;5076580;28;20179;-48
2021/05/21 03:03:01;;;;;;;2.70;1.83;;;9.80;99.90;;;;;;5076332;28;20178;-46
2021/05/21 03:05:27;;;;;;;2.10;1.90;;;9.80;99.90;;;;;;5076556;28;20204;-47
2021/05/21 03:07:54;;;;;;;3.10;2.80;;;9.80;99.90;;;;;;5076589;28;20191;-47
2021/05/21 03:10:23;;;;;;;2.97;2.73;;;9.70;99.90;;;;;;5076404;28;20171;-46
2021/05/21 03:12:50;;;;;;;3.50;3.10;;;9.70;99.90;;;;;;5076519;28;20175;-48
2021/05/21 03:15:15;;;;;;;3.73;3.00;;;9.60;99.90;;;;;;5076283;28;20684;-49
2021/05/21 03:17:41;;;;;;;3.43;3.13;;;9.60;99.90;;;;;;5076238;28;20198;-50
2021/05/21 03:20:07;;;;;;;3.00;2.70;;;9.60;99.90;;;;;;5075825;28;20190;-52
2021/05/21 03:22:33;;;;;;;2.63;2.43;;;9.60;99.90;;;;;;5076245;28;20267;-54
2021/05/21 03:25:02;;;;;;;3.00;2.80;;;9.50;99.90;;;;;;5076300;28;20222;-47
2021/05/21 03:27:29;;;;;;;3.10;2.80;;;9.50;99.90;;;;;;5076857;28;20270;-45
2021/05/21 03:29:55;;;;;;;3.67;3.37;;;9.50;99.90;;;;;;5076727;28;20181;-48
2021/05/21 03:32:20;;;;;;;3.10;2.90;;;9.50;99.90;;;;;;5076030;28;20171;-50
2021/05/21 03:34:46;;;;;;;3.47;3.20;;;9.50;99.90;;;;;;5076226;28;20188;-48
2021/05/21 03:37:11;;;;;;;4.07;3.23;;;9.50;99.90;;;;;;5075919;28;20201;-49
2021/05/21 03:39:38;;;;;;;3.10;2.90;;;9.50;99.90;;;;;;5076008;28;20201;-49
2021/05/21 03:42:05;;;;;;;3.20;3.00;;;9.50;99.90;;;;;;5075829;28;20178;-50
2021/05/21 03:44:31;;;;;;;3.50;3.20;;;9.50;99.90;;;;;;5076288;28;20533;-47
2021/05/21 03:46:57;;;;;;;3.90;3.27;;;9.50;99.90;;;;;;5075881;28;20685;-50
2021/05/21 03:49:23;;;;;;;3.33;3.03;;;9.50;99.90;;;;;;5075915;28;20629;-46
2021/05/21 03:51:50;;;;;;;3.70;3.40;;;9.60;99.90;;;;;;5075913;28;20174;-55
2021/05/21 03:54:15;;;;;;;3.87;3.53;;;9.70;99.90;;;;;;5075903;28;20202;-49
2021/05/21 03:56:41;;;;;;;4.43;4.10;;;9.80;99.90;;;;;;5076074;28;20217;-53
2021/05/21 03:59:07;;;;;;;4.50;4.10;;;9.80;99.90;;;;;;5075754;28;20511;-46
2021/05/21 04:01:32;;;;;;;4.57;4.10;;;9.80;99.90;;;;;;5075117;28;20185;-48
2021/05/21 04:03:59;;;;;;;4.30;3.90;;;9.90;99.90;;;;;;5083772;28;20205;-46
2021/05/21 04:06:24;;;;;;;4.10;3.80;;;10.00;99.90;;;;;;5095785;28;20280;-48
2021/05/21 04:08:50;;;;;;;4.03;3.73;;;10.10;99.90;;;;;;5095565;28;20242;-49
2021/05/21 04:11:15;;;;;;;5.13;4.63;;;10.20;99.90;;;;;;5095390;28;20174;-47
2021/05/21 04:13:41;;;;;;;4.43;4.03;;;10.20;99.90;;;;;;5095500;28;20170;-47
2021/05/21 04:16:07;;;;;;;4.10;3.80;;;10.20;99.90;;;;;;5095272;28;20192;-50
2021/05/21 04:18:32;;;;;;;4.90;4.50;;;10.30;99.90;;;;;;5095597;28;20177;-50
2021/05/21 04:20:58;;;;;;;4.60;4.20;;;10.30;99.90;;;;;;5095629;28;20205;-48
2021/05/21 04:23:24;;;;;;;4.60;4.20;;;10.30;99.90;;;;;;5095557;28;20257;-53
2021/05/21 04:25:51;;;;;;;5.33;4.43;;;10.40;99.90;;;;;;5095261;28;20232;-53
2021/05/21 04:28:16;;;;;;;4.37;3.97;;;10.50;99.90;;;;;;5095827;28;20193;-48
2021/05/21 04:30:42;;;;;;;5.17;4.27;;;10.50;99.90;;;;;;5094069;28;20515;-53
2021/05/21 04:33:07;;;;;;;5.53;5.03;;;10.60;99.90;;;;;;5095010;28;20170;-48
2021/05/21 04:35:33;;;;;;;5.97;5.03;;;10.60;99.90;;;;;;5095231;28;20173;-47
2021/05/21 04:37:58;;;;;;;6.37;4.43;;;10.60;99.90;;;;;;5095014;28;20197;-48
2021/05/21 04:40:24;;;;;;;3.90;3.50;;;10.60;99.90;;;;;;5095555;28;20172;-52
2021/05/21 04:42:50;;;;;;;4.90;3.00;;;10.60;99.90;;;;;;5094635;28;20170;-49
2021/05/21 04:45:16;;;;;;;3.23;2.93;;;10.60;99.90;;;;;;5094753;28;20198;-49
2021/05/21 04:47:41;;;;;;;3.40;2.60;;;10.60;99.90;;;;;;5093502;28;20298;-52
2021/05/21 04:50:07;;;;;;;3.73;3.10;;;10.70;99.90;;;;;;5094888;28;20161;-49
2021/05/21 04:52:33;;;;;;;3.20;2.90;;;10.70;99.90;;;;;;5093671;28;20197;-46
2021/05/21 04:54:58;;;;;;;2.97;2.77;;;10.70;99.90;;;;;;5094681;28;20205;-51
2021/05/21 04:57:24;;;;;;;2.27;2.17;;;10.80;99.90;;;;;;5094667;28;20190;-51
2021/05/21 04:59:49;;;;;;;3.40;3.00;;;10.90;99.90;;;;;;5095558;28;20185;-52
2021/05/21 05:02:15;;;;;;;2.90;2.70;;;11.00;99.90;;;;;;5094367;28;20174;-51
2021/05/21 05:04:40;;;;;;;4.90;2.80;;;11.10;99.90;;;;;;5094578;28;20278;-51
2021/05/21 05:07:06;;;;;;;3.27;2.93;;;11.10;99.90;;;;;;5095016;28;20243;-47
2021/05/21 05:09:31;;;;;;;2.73;2.53;;;11.10;99.90;;;;;;5088560;28;20174;-48
2021/05/21 05:11:59;;;;;;;3.03;2.73;;;11.10;99.90;;;;;;5093670;28;20219;-48
2021/05/21 05:14:24;;;;;;;2.50;2.30;;;11.10;99.90;;;;;;5088851;28;20257;-46
2021/05/21 05:16:50;;;;;;;2.90;2.57;;;11.00;99.90;;;;;;5085640;28;20284;-46
2021/05/21 05:19:16;;;;;;;2.70;2.50;;;11.10;99.90;;;;;;5094330;28;20185;-52
2021/05/21 05:21:43;;;;;;;2.70;2.50;;;11.10;99.90;;;;;;5094186;28;20173;-48
2021/05/21 05:24:17;;;;;;;2.90;2.60;;;11.10;99.90;;;;;;5093891;28;20170;-48
2021/05/21 05:26:43;;;;;;;2.60;2.40;;;11.10;99.90;;;;;;5094761;28;20193;-46
2021/05/21 05:29:09;;;;;;;2.40;2.20;;;11.10;99.90;;;;;;5094451;28;20174;-46
2021/05/21 05:31:36;;;;;;;2.67;2.10;;;11.10;99.90;;;;;;5094511;28;20177;-49
2021/05/21 05:34:02;;;;;;;2.30;2.10;;;11.20;99.90;;;;;;5094314;28;20662;-54
2021/05/21 05:36:27;;;;;;;2.43;2.23;;;11.30;99.90;;;;;;5092658;28;20229;-52
2021/05/21 05:38:53;;;;;;;2.47;2.20;;;11.20;99.90;;;;;;5092911;28;20278;-54
2021/05/21 05:41:19;;;;;;;3.20;2.00;;;11.20;99.90;;;;;;5092886;28;20316;-54
2021/05/21 05:43:44;;;;;;;2.57;2.20;;;11.30;99.90;;;;;;5093369;28;20303;-51
2021/05/21 05:46:10;;;;;;;2.00;1.90;;;11.40;99.90;;;;;;5087383;28;20612;-54
2021/05/21 05:48:37;;;;;;;2.03;1.93;;;11.40;99.90;;;;;;5086406;28;20177;-47
2021/05/21 05:51:03;;;;;;;2.10;2.00;;;11.50;99.90;;;;;;5054419;28;20318;-52
2021/05/21 05:53:35;;;;;;;2.17;1.97;;;11.50;99.90;;;;;;5073684;28;20173;-53
2021/05/21 05:56:03;;;;;;;2.30;1.87;;;11.50;99.90;;;;;;5093894;28;20220;-51
2021/05/21 05:58:29;;;;;;;2.37;2.17;;;11.60;99.90;;;;;;5093770;28;20517;-48
2021/05/21 06:00:55;;;;;;;3.77;2.20;;;11.60;99.90;;;;;;5093332;28;20197;-48
2021/05/21 06:03:21;;;;;;;2.93;2.00;;;11.70;99.90;;;;;;5093552;28;20661;-46
2021/05/21 06:05:47;;;;;;;3.10;2.30;;;11.80;99.90;;;;;;5093600;28;20197;-48
2021/05/21 06:08:12;;;;;;;5.17;2.60;;;11.80;99.90;;;;;;5092074;28;20190;-50
2021/05/21 06:10:38;;;;;;;2.40;2.20;;;11.80;99.90;;;;;;5092980;28;20170;-53
2021/05/21 06:13:09;;;;;;;2.30;2.10;;;11.70;99.90;;;;;;5093088;28;20189;-53
2021/05/21 06:15:36;;;;;;;2.70;2.30;;;11.80;99.90;;;;;;5091975;28;20178;-47
2021/05/21 06:18:02;;;;;;;2.73;2.20;;;12.00;99.90;;;;;;5092890;28;20201;-54
2021/05/21 06:20:30;;;;;;;2.60;2.40;;;12.20;99.90;;;;;;5091978;28;20208;-49
2021/05/21 06:22:56;;;;;;;2.40;2.20;;;12.50;99.90;;;;;;5091599;28;20312;-52
2021/05/21 06:25:24;;;;;;;2.20;1.97;;;12.70;99.90;;;;;;5092965;28;20278;-52
2021/05/21 06:27:50;;;;;;;2.07;1.87;;;13.00;99.90;;;;;;5089931;28;20206;-48
2021/05/21 06:30:15;;;;;;;2.10;1.90;;;13.20;99.90;;;;;;5093299;28;20174;-49
2021/05/21 06:32:43;;;;;;;2.67;2.10;;;13.40;99.90;;;;;;5091707;28;20247;-51
2021/05/21 06:35:11;;;;;;;3.23;2.13;;;13.50;99.90;;;;;;5094145;28;20182;-48
2021/05/21 06:37:38;;;;;;;1.90;1.80;;;13.70;99.90;;;;;;5091439;28;20199;-53
2021/05/21 06:40:05;;;;;;;3.23;1.80;;;13.80;99.90;;;;;;5093083;28;20237;-48
2021/05/21 06:42:31;;;;;;;2.00;1.67;;;14.00;99.90;;;;;;5093285;28;20266;-55
2021/05/21 06:44:56;;;;;;;1.90;1.80;;;14.00;99.90;;;;;;5093308;28;20282;-55
2021/05/21 06:47:22;;;;;;;1.60;1.50;;;14.00;99.90;;;;;;5093237;28;20219;-48
2021/05/21 06:49:48;;;;;;;3.30;2.10;;;14.20;99.90;;;;;;5093746;28;20194;-48
2021/05/21 06:52:14;;;;;;;3.07;1.47;;;14.20;99.90;;;;;;5092975;28;20175;-49
2021/05/21 06:54:41;;;;;;;2.20;1.77;;;14.20;99.90;;;;;;5095465;28;20184;-49
2021/05/21 06:57:07;;;;;;;2.13;1.80;;;14.20;99.90;;;;;;5097460;28;20245;-46
2021/05/21 06:59:32;;;;;;;2.00;1.50;;;14.10;99.90;;;;;;5096992;28;20173;-46
2021/05/21 07:01:58;;;;;;;2.13;1.33;;;14.00;99.90;;;;;;5096691;28;20185;-50
2021/05/21 07:04:24;;;;;;;2.30;1.63;;;14.00;99.90;;;;;;5096806;28;20198;-51
2021/05/21 07:06:49;;;;;;;2.13;1.73;;;14.00;99.90;;;;;;5097095;28;20237;-50
2021/05/21 07:09:15;;;;;;;1.60;1.50;;;14.00;99.90;;;;;;5096849;28;20216;-50
2021/05/21 07:11:40;;;;;;;6.27;2.47;;;14.10;99.90;;;;;;5096191;28;20207;-49
2021/05/21 07:14:08;;;;;;;4.17;2.20;;;14.20;99.90;;;;;;5094542;28;20242;-52
2021/05/21 07:16:34;;;;;;;1.50;1.40;;;14.40;99.90;;;;;;5093634;28;20216;-49
2021/05/21 07:19:00;;;;;;;2.33;1.60;;;14.70;99.90;;;;;;5094382;28;20173;-47
2021/05/21 07:21:26;;;;;;;2.03;1.33;;;15.00;99.90;;;;;;5093686;28;20559;-47
2021/05/21 07:23:52;;;;;;;1.60;1.50;;;15.30;99.90;;;;;;5094329;28;20158;-52
2021/05/21 07:26:18;;;;;;;1.33;1.23;;;15.20;99.90;;;;;;5094305;28;20288;-52
2021/05/21 07:28:44;;;;;;;1.30;1.20;;;15.10;99.90;;;;;;5096144;28;20278;-46
2021/05/21 07:31:10;;;;;;;2.93;1.70;;;15.10;99.90;;;;;;5096474;28;20172;-48
2021/05/21 07:33:36;;;;;;;1.90;1.20;;;15.10;99.90;;;;;;5096108;28;20227;-51
2021/05/21 07:36:03;;;;;;;1.57;1.00;;;15.00;99.90;;;;;;5095394;28;20196;-53
2021/05/21 07:38:28;;;;;;;1.40;1.30;;;15.00;99.90;;;;;;5096081;28;20209;-50
2021/05/21 07:40:54;;;;;;;1.50;1.40;;;15.00;99.90;;;;;;5096289;28;20185;-46
2021/05/21 07:43:19;;;;;;;1.13;1.00;;;14.90;99.90;;;;;;5096072;28;20576;-46
2021/05/21 07:45:45;;;;;;;2.57;1.60;;;14.90;99.90;;;;;;5093718;28;20617;-46
2021/05/21 07:48:10;;;;;;;1.50;1.33;;;14.90;99.90;;;;;;5095782;28;20165;-49
2021/05/21 07:50:38;;;;;;;2.53;1.37;;;15.10;99.90;;;;;;5094611;28;20203;-47
2021/05/21 07:53:09;;;;;;;1.50;1.20;;;15.30;99.90;;;;;;5095394;28;20174;-50
2021/05/21 07:55:35;;;;;;;2.70;1.47;;;15.30;99.90;;;;;;5094468;28;20709;-49
2021/05/21 07:58:01;;;;;;;1.90;1.30;;;15.40;99.90;;;;;;5095656;28;20225;-47
2021/05/21 08:00:27;;;;;;;2.47;1.30;;;15.30;99.90;;;;;;5095446;28;20174;-51
2021/05/21 08:02:52;;;;;;;1.80;1.47;;;15.20;99.90;;;;;;5093443;28;20170;-49
2021/05/21 08:05:18;;;;;;;1.97;1.30;;;15.20;99.90;;;;;;5095442;28;20282;-51
2021/05/21 08:07:44;;;;;;;2.47;1.20;;;15.20;99.90;;;;;;5095468;28;20209;-49
2021/05/21 08:10:10;;;;;;;1.37;1.00;;;15.10;99.90;;;;;;5095500;28;20175;-55
2021/05/21 08:12:36;;;;;;;2.57;1.10;;;15.20;99.90;;;;;;5094862;28;20267;-49
2021/05/21 08:15:02;;;;;;;1.90;1.13;;;15.40;99.90;;;;;;5095711;28;20255;-48
2021/05/21 08:17:32;;;;;;;1.73;1.63;;;15.60;99.90;;;;;;5095182;28;20200;-48
2021/05/21 08:19:58;;;;;;;2.27;1.37;;;15.60;99.90;;;;;;5095357;28;20235;-51
2021/05/21 08:22:24;;;;;;;0.80;0.80;;;15.50;99.90;;;;;;5093102;28;20197;-54
2021/05/21 08:24:49;;;;;;;0.80;0.80;;;15.50;99.90;;;;;;5093323;28;20232;-54
2021/05/21 08:27:15;;;;;;;1.13;1.03;;;15.40;99.90;;;;;;5094801;28;20190;-49
2021/05/21 08:29:41;;;;;;;2.40;0.70;;;15.40;99.90;;;;;;5094739;28;20170;-46
2021/05/21 08:32:06;;;;;;;0.90;0.70;;;15.50;99.90;;;;;;5094646;28;20177;-48
2021/05/21 08:34:32;;;;;;;3.77;0.77;;;15.60;99.90;;;;;;5093586;28;20269;-49
2021/05/21 08:36:57;;;;;;;0.73;0.73;;;15.90;99.90;;;;;;5095564;28;20206;-46
2021/05/21 08:39:23;;;;;;;1.73;0.80;;;16.00;99.90;;;;;;5095292;28;20238;-48
2021/05/21 08:41:50;;;;;;;1.57;0.90;;;16.10;99.90;;;;;;5094192;28;20226;-50
2021/05/21 08:44:20;;;;;;;0.87;0.87;;;16.00;99.90;;;;;;5095118;28;20185;-49
2021/05/21 08:46:46;;;;;;;1.63;0.70;;;16.00;99.90;;;;;;5095021;28;20194;-49
2021/05/21 08:49:12;;;;;;;0.90;0.77;;;16.20;99.90;;;;;;5094747;28;20625;-47
2021/05/21 08:51:38;;;;;;;1.40;1.20;;;16.20;99.90;;;;;;5094731;28;20177;-52
2021/05/21 08:54:06;;;;;;;2.50;0.80;;;16.10;99.90;;;;;;5094853;28;20174;-56
2021/05/21 08:56:33;;;;;;;1.30;0.80;;;16.10;99.90;;;;;;5094779;28;20206;-52
2021/05/21 08:58:59;;;;;;;1.10;1.00;;;16.10;99.90;;;;;;5094689;28;20166;-52
2021/05/21 09:01:26;;;;;;;1.90;1.03;;;16.20;99.90;;;;;;5094368;28;20216;-49
2021/05/21 09:04:01;;;;;;;1.17;1.00;;;16.20;99.90;;;;;;5094449;28;20177;-45
2021/05/21 09:06:28;;;;;;;1.20;0.87;;;16.20;99.90;;;;;;5095106;28;20205;-51
2021/05/21 09:09:00;;;;;;;1.63;1.20;;;16.20;99.90;;;;;;5095241;28;20185;-46
2021/05/21 09:11:33;;;;;;;2.53;1.10;;;16.20;99.90;;;;;;5094956;28;20721;-54
2021/05/21 09:14:01;;;;;;;1.63;1.10;;;16.30;99.90;;;;;;5095050;28;20166;-50
2021/05/21 09:16:29;;;;;;;1.10;0.90;;;16.40;99.90;;;;;;5094000;28;20198;-56
2021/05/21 09:19:00;;;;;;;1.20;0.90;;;16.50;99.90;;;;;;5094280;28;20208;-50
2021/05/21 09:21:45;;;;;;;1.00;0.90;;;16.70;99.90;;;;;;5095102;28;20210;-48
2021/05/21 09:24:11;;;;;;;3.00;0.83;;;16.90;99.90;;;;;;5094405;28;20158;-48
2021/05/21 09:26:45;;;;;;;4.70;1.10;;;17.10;99.90;;;;;;5094423;28;20196;-51
2021/05/21 09:29:13;;;;;;;1.90;0.93;;;17.50;99.90;;;;;;5094551;28;20194;-52
2021/05/21 09:31:43;;;;;;;3.03;1.00;;;17.60;99.90;;;;;;5094453;28;20268;-53
2021/05/21 09:34:10;;;;;;;1.37;0.90;;;18.00;99.90;;;;;;5094274;28;20165;-49
2021/05/21 09:36:37;;;;;;;1.27;0.83;;;18.30;99.90;;;;;;5094677;28;20182;-48
2021/05/21 09:39:07;;;;;;;2.13;0.80;;;18.50;99.90;;;;;;5094280;28;20189;-52
2021/05/21 09:41:49;;;;;;;1.10;0.80;;;18.70;99.90;;;;;;5093888;28;20170;-49
2021/05/21 09:44:14;;;;;;;2.03;0.80;;;18.80;99.90;;;;;;5093979;28;20186;-50
2021/05/21 09:46:43;;;;;;;0.93;0.70;;;18.80;99.90;;;;;;5093998;28;20667;-48
2021/05/21 09:49:33;;;;;;;1.43;0.87;;;18.70;99.90;;;;;;5081670;28;20233;-52
2021/05/21 09:52:03;;;;;;;1.53;0.80;;;18.60;99.90;;;;;;5073745;28;20250;-49
2021/05/21 09:54:48;;;;;;;1.00;0.80;;;18.70;99.90;;;;;;5074341;28;20182;-49
2021/05/21 09:57:15;;;;;;;4.37;0.90;;;18.80;99.90;;;;;;5073556;28;20661;-47
2021/05/21 09:59:44;;;;;;;1.50;0.83;;;18.90;99.90;;;;;;5073806;28;20197;-53
2021/05/21 10:02:24;;;;;;;0.67;0.67;;;19.00;99.90;;;;;;5073769;28;20511;-48
2021/05/21 10:04:51;;;;;;;1.10;1.00;;;19.10;99.90;;;;;;5073990;28;20198;-47
2021/05/21 10:07:17;;;;;;;2.50;1.00;;;19.20;99.90;;;;;;5073983;28;20248;-47
2021/05/21 10:09:43;;;;;;;0.93;0.80;;;19.20;99.90;;;;;;5073643;28;20590;-47
2021/05/21 10:12:09;;;;;;;0.83;0.83;;;19.00;99.90;;;;;;5073519;28;20196;-53
2021/05/21 10:14:35;;;;;;;1.83;1.00;;;18.90;99.90;;;;;;5073740;28;20189;-50
2021/05/21 10:17:02;;;;;;;1.10;1.00;;;18.70;99.90;;;;;;5073761;28;20272;-48
2021/05/21 10:19:28;;;;;;;1.83;1.10;;;18.70;99.90;;;;;;5073640;28;20636;-49
2021/05/21 10:21:54;;;;;;;1.13;1.00;;;18.90;99.90;;;;;;5073306;28;20702;-49
2021/05/21 10:24:21;;;;;;;1.10;1.00;;;19.10;99.90;;;;;;5073965;28;20198;-50
2021/05/21 10:26:54;;;;;;;1.43;1.13;;;19.30;99.90;;;;;;5073975;28;20214;-50
2021/05/21 10:29:26;;;;;;;0.90;0.90;;;19.40;99.90;;;;;;5074577;28;20262;-53
2021/05/21 10:31:53;;;;;;;1.60;0.67;;;19.50;99.90;;;;;;5077304;28;20175;-55
2021/05/21 10:34:21;;;;;;;1.87;0.90;;;19.60;99.90;;;;;;5076983;28;20183;-47
2021/05/21 10:36:47;;;;;;;1.23;0.80;;;19.80;99.90;;;;;;5077601;28;20199;-54
2021/05/21 10:39:17;;;;;;;1.10;0.93;;;19.90;99.90;;;;;;5077023;28;20217;-47
2021/05/21 10:41:53;;;;;;;0.70;0.70;;;19.60;99.90;;;;;;5076883;28;20220;-51
2021/05/21 10:44:21;;;;;;;1.40;1.07;;;19.40;99.20;;;;;;5077486;28;20174;-46
2021/05/21 10:47:11;;;;;;;1.27;0.70;;;19.30;99.90;;;;;;5077445;28;20199;-47
2021/05/21 10:49:37;;;;;;;1.70;0.90;;;19.30;99.90;;;;;;5076643;28;20253;-49
2021/05/21 10:52:03;;;;;;;1.13;1.00;;;19.30;99.90;;;;;;5077123;28;20551;-49
2021/05/21 10:54:32;;;;;;;2.33;0.90;;;19.20;99.90;;;;;;5076807;28;20527;-53
2021/05/21 10:57:30;;;;;;;0.97;0.90;;;19.10;99.90;;;;;;5077114;28;20198;-54
2021/05/21 11:00:05;;;;;;;1.93;0.90;;;19.00;99.90;;;;;;5054517;28;20180;-48
2021/05/21 11:02:43;;;;;;;1.20;0.90;;;18.80;99.90;;;;;;5054321;28;20183;-49
2021/05/21 11:05:28;;;;;;;2.57;0.93;;;18.80;99.90;;;;;;5054747;28;20536;-51
2021/05/21 11:08:02;;;;;;;4.37;0.97;;;18.80;99.90;;;;;;5054394;28;20752;-54
2021/05/21 11:10:33;;;;;;;1.17;0.90;;;18.90;99.90;;;;;;5054327;28;20180;-50
2021/05/21 11:13:01;;;;;;;2.27;0.90;;;19.00;99.90;;;;;;5054864;28;20198;-51
2021/05/21 11:15:47;;;;;;;0.90;0.90;;;19.10;99.90;;;;;;5053790;28;20187;-53
2021/05/21 11:18:15;;;;;;;1.37;1.03;;;19.30;99.90;;;;;;5054365;28;20186;-48
2021/05/21 11:21:03;;;;;;;1.93;1.00;;;19.70;99.90;;;;;;5054926;28;20179;-52
2021/05/21 11:23:33;;;;;;;1.10;1.00;;;20.20;99.90;;;;;;5054240;28;20183;-54
2021/05/21 11:26:17;;;;;;;0.90;0.80;;;20.70;99.90;;;;;;5054342;28;20214;-48
2021/05/21 11:28:45;;;;;;;1.20;0.83;;;21.10;99.90;;;;;;5054618;28;20187;-52
2021/05/21 11:31:11;;;;;;;1.37;0.80;;;21.40;99.90;;;;;;5053837;28;20176;-55
2021/05/21 11:33:37;;;;;;;1.90;1.03;;;21.20;99.90;;;;;;5056458;28;20252;-49
2021/05/21 11:36:10;;;;;;;0.90;0.70;;;20.70;99.90;;;;;;5077105;28;20202;-54
2021/05/21 11:38:36;;;;;;;0.70;0.70;;;20.40;99.90;;;;;;5075891;28;20194;-50
2021/05/21 11:41:03;;;;;;;0.70;0.70;;;19.90;99.90;;;;;;5091122;28;20174;-51
2021/05/21 11:43:28;;;;;;;3.00;1.17;;;19.70;99.90;;;;;;5091382;28;20182;-58
2021/05/21 11:45:56;;;;;;;1.17;1.07;;;19.60;99.90;;;;;;5094502;28;20224;-56
2021/05/21 11:48:33;;;;;;;1.37;1.00;;;19.60;99.90;;;;;;5094088;28;20155;-48
2021/05/21 11:51:01;;;;;;;1.53;1.27;;;19.70;99.90;;;;;;5095767;28;20199;-49
2021/05/21 11:53:27;;;;;;;1.63;1.30;;;19.40;99.90;;;;;;5095962;28;20169;-47
2021/05/21 11:55:52;;;;;;;2.20;0.90;;;19.40;99.90;;;;;;5094313;28;20204;-46
2021/05/21 11:58:27;;;;;;;1.17;1.00;;;19.50;99.90;;;;;;5095879;28;20637;-54
2021/05/21 12:01:00;;;;;;;6.23;1.27;;;19.80;99.90;;;;;;5095884;28;20169;-51
2021/05/21 12:03:39;;;;;;;1.03;0.90;;;19.90;99.90;;;;;;5095856;28;20182;-49
2021/05/21 12:06:06;;;;;;;1.30;1.00;;;19.90;99.90;;;;;;5095618;28;20561;-51
2021/05/21 12:08:32;;;;;;;1.17;1.00;;;20.00;99.90;;;;;;5095836;28;20697;-45
2021/05/21 12:10:59;;;;;;;1.43;0.90;;;19.80;99.90;;;;;;5095425;28;20170;-49
2021/05/21 12:13:29;;;;;;;0.80;0.70;;;19.60;99.90;;;;;;5095834;28;20269;-48
2021/05/21 12:16:17;;;;;;;1.27;0.80;;;19.40;99.90;;;;;;5095549;28;20178;-49
2021/05/21 12:18:43;;;;;;;1.73;1.10;;;19.30;99.90;;;;;;5095616;28;20178;-48
2021/05/21 12:21:09;;;;;;;1.50;1.00;;;19.10;99.90;;;;;;5095215;28;20625;-48
2021/05/21 12:23:39;;;;;;;1.03;1.00;;;19.10;99.90;;;;;;5095408;28;20177;-50
2021/05/21 12:26:11;;;;;;;1.07;0.83;;;19.20;99.90;;;;;;5095684;28;20216;-49
2021/05/21 12:28:38;;;;;;;1.10;0.83;;;19.40;99.90;;;;;;5094264;28;20686;-49
2021/05/21 12:31:06;;;;;;;1.10;0.77;;;18.80;99.90;;;;;;5089579;28;20170;-55
2021/05/21 12:33:34;;;;;;;0.80;0.70;;;18.60;99.90;;;;;;5093127;28;20178;-51
2021/05/21 12:36:16;;;;;;;1.07;0.90;;;18.40;99.90;;;;;;5095830;28;20327;-53
2021/05/21 12:38:48;;;;;;;1.77;0.90;;;18.20;99.90;;;;;;5094008;28;20190;-55
2021/05/21 12:41:15;;;;;;;1.33;1.10;;;17.90;99.90;;;;;;5095088;28;20226;-51
2021/05/21 12:43:40;;;;;;;1.87;0.97;;;18.60;99.90;;;;;;5093667;28;20276;-53
2021/05/21 12:46:08;;;;;;;1.47;1.30;;;17.70;99.90;;;;;;5094079;28;20288;-46
2021/05/21 12:48:39;;;;;;;1.73;1.03;;;17.50;99.90;;;;;;5095263;28;20298;-54